createdAt,value
2022-11-01T00:01:50.761Z,15.20
2022-11-01T00:04:17.881Z,15.32
2022-11-01T00:06:45.009Z,16.00
2022-11-01T00:09:12.105Z,15.48
2022-11-01T00:11:39.209Z,17.25
2022-11-01T00:14:06.294Z,15.82
2022-11-01T00:16:33.421Z,16.25
2022-11-01T00:19:00.499Z,15.32
2022-11-01T00:21:27.602Z,18.75
2022-11-01T00:23:54.722Z,15.43
2022-11-01T00:26:21.845Z,16.92
2022-11-01T00:28:48.909Z,16.98
2022-11-01T00:31:16.024Z,14.60
2022-11-01T00:33:43.104Z,15.65
2022-11-01T00:36:10.215Z,16.70
2022-11-01T00:38:37.302Z,14.70
2022-11-01T00:41:04.467Z,15.98
2022-11-01T00:43:31.546Z,16.55
2022-11-01T00:45:58.646Z,15.80
2022-11-01T00:48:25.946Z,14.82
2022-11-01T00:50:53.077Z,16.02
2022-11-01T00:53:20.146Z,14.02
2022-11-01T00:55:47.220Z,17.50
2022-11-01T00:58:14.348Z,15.93
2022-11-01T01:00:41.712Z,14.15
2022-11-01T01:03:08.920Z,14.63
2022-11-01T01:05:35.993Z,16.50
2022-11-01T01:08:03.057Z,15.45
2022-11-01T01:10:30.143Z,14.55
2022-11-01T01:12:57.226Z,15.77
2022-11-01T01:15:24.318Z,14.95
2022-11-01T01:17:52.837Z,15.40
2022-11-01T01:20:20.334Z,17.75
2022-11-01T01:22:47.411Z,17.98
2022-11-01T01:25:14.478Z,16.90
2022-11-01T01:27:41.558Z,18.25
2022-11-01T01:30:08.731Z,16.52
2022-11-01T01:32:35.808Z,18.05
2022-11-01T01:35:02.955Z,17.10
2022-11-01T01:37:30.049Z,16.33
2022-11-01T01:39:57.109Z,17.45
2022-11-01T01:42:24.461Z,16.38
2022-11-01T01:44:51.716Z,15.30
2022-11-01T01:47:18.778Z,17.02
2022-11-01T01:49:45.895Z,17.33
2022-11-01T01:52:13.019Z,17.25
2022-11-01T01:54:40.137Z,18.48
2022-11-01T01:57:07.198Z,17.38
2022-11-01T01:59:34.272Z,15.48
2022-11-01T02:02:01.455Z,16.40
2022-11-01T02:04:28.628Z,14.57
2022-11-01T02:06:55.716Z,16.23
2022-11-01T02:09:23.137Z,16.80
2022-11-01T02:11:51.271Z,16.08
2022-11-01T02:14:18.341Z,15.48
2022-11-01T02:16:45.451Z,14.75
2022-11-01T02:19:12.511Z,16.23
2022-11-01T02:21:39.908Z,15.55
2022-11-01T02:24:06.997Z,15.75
2022-11-01T02:26:34.074Z,15.90
2022-11-01T02:29:04.788Z,16.42
2022-11-01T02:31:32.964Z,16.25
2022-11-01T02:34:00.045Z,15.82
2022-11-01T02:36:27.121Z,18.08
2022-11-01T02:38:54.195Z,16.63
2022-11-01T02:41:21.352Z,18.45
2022-11-01T02:43:48.461Z,16.48
2022-11-01T02:46:34.087Z,16.35
2022-11-01T02:49:01.156Z,15.43
2022-11-01T02:51:28.247Z,16.60
2022-11-01T02:53:55.349Z,17.90
2022-11-01T02:56:22.850Z,16.17
2022-11-01T02:58:50.079Z,17.00
2022-11-01T03:01:17.274Z,16.52
2022-11-01T03:03:44.439Z,15.70
2022-11-01T03:06:11.523Z,17.23
2022-11-01T03:08:38.969Z,14.55
2022-11-01T03:11:06.076Z,16.00
2022-11-01T03:13:33.152Z,15.23
2022-11-01T03:16:00.236Z,18.25
2022-11-01T03:18:27.312Z,15.95
2022-11-01T03:20:56.353Z,16.33
2022-11-01T03:23:23.431Z,15.65
2022-11-01T03:25:50.540Z,15.88
2022-11-01T03:28:17.625Z,17.45
2022-11-01T03:30:44.734Z,13.77
2022-11-01T03:33:12.096Z,15.45
2022-11-01T03:35:39.173Z,17.23
2022-11-01T03:38:06.244Z,17.35
2022-11-01T03:40:33.316Z,16.15
2022-11-01T03:43:00.730Z,14.18
2022-11-01T03:45:28.048Z,14.80
2022-11-01T03:47:55.128Z,16.58
2022-11-01T03:50:22.236Z,17.52
2022-11-01T03:52:49.323Z,14.30
2022-11-01T03:55:19.351Z,15.75
2022-11-01T03:57:46.959Z,14.60
2022-11-01T04:00:15.205Z,14.15
2022-11-01T04:02:43.225Z,15.67
2022-11-01T04:05:10.359Z,13.23
2022-11-01T04:07:37.609Z,16.33
2022-11-01T04:10:04.773Z,17.55
2022-11-01T04:12:31.833Z,14.63
2022-11-01T04:15:17.961Z,15.85
2022-11-01T04:18:03.940Z,14.77
2022-11-01T04:23:01.244Z,15.23
2022-11-01T04:25:28.672Z,15.95
2022-11-01T04:27:58.841Z,16.45
2022-11-01T04:30:25.933Z,13.05
2022-11-01T04:32:53.006Z,15.27
2022-11-01T04:35:20.066Z,13.20
2022-11-01T04:37:47.145Z,13.23
2022-11-01T04:40:14.282Z,12.63
2022-11-01T04:42:41.362Z,13.40
2022-11-01T04:45:08.453Z,11.85
2022-11-01T04:47:35.540Z,13.60
2022-11-01T04:50:02.653Z,11.73
2022-11-01T04:52:29.721Z,12.75
2022-11-01T04:54:58.094Z,14.27
2022-11-01T04:57:25.147Z,12.30
2022-11-01T04:59:52.316Z,11.13
2022-11-01T05:02:19.439Z,14.15
2022-11-01T05:04:46.551Z,11.75
2022-11-01T05:07:13.690Z,12.10
2022-11-01T05:09:40.761Z,14.48
2022-11-01T05:12:07.868Z,10.98
2022-11-01T05:14:34.945Z,13.73
2022-11-01T05:17:02.028Z,12.70
2022-11-01T05:19:29.165Z,12.38
2022-11-01T05:21:56.240Z,12.80
2022-11-01T05:24:23.300Z,12.23
2022-11-01T05:26:50.815Z,13.90
2022-11-01T05:29:24.662Z,12.82
2022-11-01T05:31:59.389Z,13.43
2022-11-01T05:34:26.478Z,11.10
2022-11-01T05:36:53.541Z,14.88
2022-11-01T05:39:20.596Z,11.18
2022-11-01T05:41:47.666Z,12.95
2022-11-01T05:44:14.729Z,14.05
2022-11-01T05:46:41.806Z,14.35
2022-11-01T05:49:08.869Z,12.73
2022-11-01T05:51:35.973Z,13.23
2022-11-01T05:54:03.040Z,11.80
2022-11-01T05:56:30.115Z,12.18
2022-11-01T05:58:57.186Z,12.73
2022-11-01T06:01:24.275Z,12.85
2022-11-01T06:03:51.384Z,13.15
2022-11-01T06:06:18.516Z,12.55
2022-11-01T06:08:45.601Z,9.73
2022-11-01T06:11:12.690Z,13.77
2022-11-01T06:13:39.765Z,14.68
2022-11-01T06:16:06.825Z,10.93
2022-11-01T06:18:34.072Z,11.63
2022-11-01T06:21:01.198Z,12.75
2022-11-01T06:23:28.287Z,12.38
2022-11-01T06:25:55.383Z,10.60
2022-11-01T06:28:22.478Z,11.45
2022-11-01T06:30:49.645Z,11.73
2022-11-01T06:33:16.728Z,10.23
2022-11-01T06:35:43.794Z,12.13
2022-11-01T06:38:10.914Z,11.93
2022-11-01T06:40:38.069Z,13.43
2022-11-01T06:43:05.585Z,11.82
2022-11-01T06:45:32.815Z,12.10
2022-11-01T06:48:00.127Z,10.98
2022-11-01T06:50:27.509Z,11.52
2022-11-01T06:52:54.593Z,12.23
2022-11-01T06:55:21.725Z,9.60
2022-11-01T06:57:48.802Z,11.52
2022-11-01T07:00:16.761Z,10.27
2022-11-01T07:02:43.962Z,9.73
2022-11-01T07:05:11.100Z,11.07
2022-11-01T07:07:38.213Z,12.90
2022-11-01T07:10:05.577Z,12.95
2022-11-01T07:12:32.999Z,11.10
2022-11-01T07:15:00.095Z,9.80
2022-11-01T07:17:27.258Z,8.93
2022-11-01T07:19:54.326Z,10.23
2022-11-01T07:22:21.428Z,12.40
2022-11-01T07:24:48.529Z,11.15
2022-11-01T07:27:20.238Z,10.52
2022-11-01T07:29:47.876Z,10.23
2022-11-01T07:32:15.000Z,10.13
2022-11-01T07:34:42.135Z,11.23
2022-11-01T07:37:09.238Z,9.85
2022-11-01T07:39:36.326Z,10.95
2022-11-01T07:42:03.421Z,10.75
2022-11-01T07:44:30.496Z,9.77
2022-11-01T07:46:57.606Z,10.68
2022-11-01T07:49:24.674Z,10.02
2022-11-01T07:51:51.814Z,9.05
2022-11-01T07:54:18.880Z,11.77
2022-11-01T07:56:45.957Z,11.65
2022-11-01T07:59:13.037Z,11.82
2022-11-01T08:01:40.180Z,11.65
2022-11-01T08:04:07.372Z,10.70
2022-11-01T08:06:34.564Z,10.30
2022-11-01T08:09:01.712Z,8.88
2022-11-01T08:11:28.799Z,10.05
2022-11-01T08:14:00.855Z,9.23
2022-11-01T08:16:32.333Z,9.52
2022-11-01T08:18:59.458Z,9.30
2022-11-01T08:21:26.528Z,9.13
2022-11-01T08:23:53.616Z,11.70
2022-11-01T08:26:20.694Z,10.88
2022-11-01T08:28:47.775Z,9.13
2022-11-01T08:31:14.896Z,9.25
2022-11-01T08:33:41.961Z,9.25
2022-11-01T08:36:09.037Z,9.68
2022-11-01T08:38:36.117Z,10.05
2022-11-01T08:41:03.305Z,10.02
2022-11-01T08:43:30.436Z,10.55
2022-11-01T08:45:57.514Z,9.40
2022-11-01T08:48:24.605Z,8.88
2022-11-01T08:50:51.797Z,10.25
2022-11-01T08:53:19.628Z,8.75
2022-11-01T08:58:33.728Z,9.98
2022-11-01T09:01:00.822Z,10.15
2022-11-01T09:03:27.990Z,8.77
2022-11-01T09:05:55.082Z,10.02
2022-11-01T09:08:22.188Z,11.48
2022-11-01T09:10:49.260Z,11.50
2022-11-01T09:13:16.316Z,8.32
2022-11-01T09:15:43.421Z,10.65
2022-11-01T09:18:10.612Z,9.93
2022-11-01T09:20:37.701Z,9.57
2022-11-01T09:23:05.390Z,10.13
2022-11-01T09:25:32.679Z,9.65
2022-11-01T09:27:59.750Z,9.27
2022-11-01T09:30:26.827Z,8.85
2022-11-01T09:32:53.920Z,8.75
2022-11-01T09:35:21.020Z,10.13
2022-11-01T09:37:48.132Z,8.55
2022-11-01T09:40:15.284Z,7.82
2022-11-01T09:42:43.729Z,8.10
2022-11-01T09:45:10.861Z,10.95
2022-11-01T09:47:37.962Z,8.55
2022-11-01T09:50:05.059Z,9.18
2022-11-01T09:52:32.147Z,12.05
2022-11-01T09:54:59.292Z,9.65
2022-11-01T09:57:26.782Z,9.55
2022-11-01T09:59:53.854Z,9.30
2022-11-01T10:02:21.933Z,8.82
2022-11-01T10:04:49.160Z,9.65
2022-11-01T10:07:17.083Z,8.02
2022-11-01T10:09:44.165Z,9.52
2022-11-01T10:12:11.299Z,10.00
2022-11-01T10:14:38.428Z,7.93
2022-11-01T10:17:05.493Z,8.80
2022-11-01T10:19:35.332Z,8.57
2022-11-01T10:22:03.034Z,9.57
2022-11-01T10:24:30.215Z,7.25
2022-11-01T10:26:57.282Z,8.20
2022-11-01T10:29:24.412Z,7.63
2022-11-01T10:31:51.879Z,8.20
2022-11-01T10:34:18.985Z,8.05
2022-11-01T10:36:46.989Z,9.27
2022-11-01T10:42:02.393Z,8.27
2022-11-01T10:44:29.488Z,8.70
2022-11-01T10:46:56.674Z,7.47
2022-11-01T10:49:24.582Z,8.85
2022-11-01T10:51:51.822Z,7.30
2022-11-01T10:54:19.026Z,7.70
2022-11-01T10:56:46.163Z,7.40
2022-11-01T10:59:13.263Z,9.48
2022-11-01T11:01:44.280Z,7.63
2022-11-01T11:04:11.543Z,8.15
2022-11-01T11:06:38.642Z,6.80
2022-11-01T11:09:05.768Z,8.23
2022-11-01T11:11:32.852Z,7.93
2022-11-01T11:13:59.963Z,6.57
2022-11-01T11:16:27.194Z,7.45
2022-11-01T11:18:54.294Z,7.93
2022-11-01T11:21:27.055Z,7.63
2022-11-01T11:23:55.107Z,9.32
2022-11-01T11:26:22.237Z,7.40
2022-11-01T11:28:49.489Z,9.38
2022-11-01T11:31:18.577Z,9.38
2022-11-01T11:33:45.695Z,6.25
2022-11-01T11:36:12.816Z,8.95
2022-11-01T11:38:39.952Z,8.77
2022-11-01T11:41:07.031Z,7.25
2022-11-01T11:43:36.229Z,8.38
2022-11-01T11:46:03.334Z,7.63
2022-11-01T11:48:30.422Z,7.65
2022-11-01T11:50:57.527Z,6.82
2022-11-01T11:53:24.714Z,10.32
2022-11-01T11:55:51.812Z,10.80
2022-11-01T11:58:18.934Z,7.68
2022-11-01T12:00:45.994Z,7.35
2022-11-01T12:03:14.475Z,6.32
2022-11-01T12:05:41.657Z,7.07
2022-11-01T12:08:08.758Z,10.07
2022-11-01T12:10:35.889Z,8.10
2022-11-01T12:13:03.363Z,7.05
2022-11-01T12:15:30.774Z,6.50
2022-11-01T12:17:57.874Z,6.43
2022-11-01T12:20:24.998Z,8.30
2022-11-01T12:22:52.132Z,7.93
2022-11-01T12:25:19.254Z,6.28
2022-11-01T12:27:46.330Z,5.57
2022-11-01T12:30:13.548Z,6.50
2022-11-01T12:32:40.627Z,6.85
2022-11-01T12:35:07.709Z,7.70
2022-11-01T12:37:34.843Z,7.60
2022-11-01T12:40:02.085Z,7.60
2022-11-01T12:42:29.214Z,7.63
2022-11-01T12:44:56.855Z,7.90
2022-11-01T12:47:24.052Z,6.07
2022-11-01T12:49:51.164Z,7.15
2022-11-01T12:52:18.994Z,9.68
2022-11-01T12:54:47.028Z,7.85
2022-11-01T12:57:14.196Z,11.10
2022-11-01T12:59:41.362Z,9.52
2022-11-01T13:02:08.599Z,12.57
2022-11-01T13:04:35.860Z,8.07
2022-11-01T13:07:02.944Z,7.70
2022-11-01T13:09:30.090Z,8.52
2022-11-01T13:11:57.181Z,6.38
2022-11-01T13:14:24.304Z,7.05
2022-11-01T13:16:51.379Z,7.03
2022-11-01T13:19:18.814Z,7.53
2022-11-01T13:21:45.907Z,7.25
2022-11-01T13:24:13.515Z,6.00
2022-11-01T13:26:40.678Z,7.05
2022-11-01T13:29:08.766Z,6.35
2022-11-01T13:31:35.981Z,6.93
2022-11-01T13:34:03.107Z,7.93
2022-11-01T13:36:31.179Z,8.18
2022-11-01T13:38:59.072Z,9.73
2022-11-01T13:41:26.149Z,5.85
2022-11-01T13:43:53.234Z,6.40
2022-11-01T13:46:20.333Z,10.15
2022-11-01T13:48:47.451Z,6.03
2022-11-01T13:51:14.517Z,5.93
2022-11-01T13:53:41.608Z,8.45
2022-11-01T13:56:08.716Z,5.97
2022-11-01T13:58:35.937Z,7.40
2022-11-01T14:01:03.094Z,5.35
2022-11-01T14:03:30.227Z,7.45
2022-11-01T14:05:57.305Z,6.35
2022-11-01T14:08:25.049Z,6.57
2022-11-01T14:10:52.423Z,6.30
2022-11-01T14:13:19.562Z,7.20
2022-11-01T14:15:47.819Z,6.55
2022-11-01T14:18:14.889Z,6.38
2022-11-01T14:20:42.088Z,6.75
2022-11-01T14:23:09.165Z,5.65
2022-11-01T14:25:36.246Z,5.35
2022-11-01T14:28:03.689Z,6.78
2022-11-01T14:30:30.967Z,5.88
2022-11-01T14:32:58.270Z,6.60
2022-11-01T14:35:25.573Z,5.00
2022-11-01T14:37:52.709Z,5.68
2022-11-01T14:40:19.764Z,6.88
2022-11-01T14:42:46.855Z,6.82
2022-11-01T14:45:13.953Z,4.90
2022-11-01T14:47:43.220Z,5.13
2022-11-01T14:50:10.297Z,6.43
2022-11-01T14:52:40.157Z,5.78
2022-11-01T14:55:08.058Z,8.02
2022-11-01T14:57:35.213Z,8.10
2022-11-01T15:00:02.309Z,6.75
2022-11-01T15:02:29.531Z,8.75
2022-11-01T15:04:56.887Z,7.93
2022-11-01T15:07:27.719Z,7.43
2022-11-01T15:09:57.873Z,8.25
2022-11-01T15:12:24.995Z,6.85
2022-11-01T15:14:52.115Z,7.78
2022-11-01T15:17:19.185Z,6.90
2022-11-01T15:19:46.974Z,8.63
2022-11-01T15:22:14.103Z,10.02
2022-11-01T15:24:41.193Z,7.97
2022-11-01T15:27:08.641Z,8.00
2022-11-01T15:29:35.753Z,8.57
2022-11-01T15:32:05.642Z,7.18
2022-11-01T15:34:34.392Z,6.85
2022-11-01T15:37:01.480Z,14.68
2022-11-01T15:39:29.353Z,9.23
2022-11-01T15:41:57.521Z,8.25
2022-11-01T15:44:24.621Z,8.80
2022-11-01T15:46:51.742Z,6.53
2022-11-01T15:49:18.818Z,8.95
2022-11-01T15:51:45.972Z,7.88
2022-11-01T15:54:13.066Z,8.15
2022-11-01T15:56:42.322Z,6.50
2022-11-01T15:59:09.454Z,8.40
2022-11-01T16:01:36.646Z,6.97
2022-11-01T16:04:03.814Z,8.80
2022-11-01T16:06:31.538Z,8.20
2022-11-01T16:08:59.043Z,7.15
2022-11-01T16:11:26.184Z,9.75
2022-11-01T16:13:53.337Z,6.65
2022-11-01T16:16:20.927Z,9.90
2022-11-01T16:18:48.150Z,9.25
2022-11-01T16:21:15.230Z,11.60
2022-11-01T16:23:42.913Z,8.77
2022-11-01T16:26:10.347Z,7.32
2022-11-01T16:28:37.942Z,7.65
2022-11-01T16:31:05.366Z,8.50
2022-11-01T16:33:32.735Z,6.65
2022-11-01T16:35:59.901Z,6.38
2022-11-01T16:38:26.990Z,7.88
2022-11-01T16:40:54.930Z,6.28
2022-11-01T16:43:22.662Z,6.18
2022-11-01T16:45:49.747Z,7.53
2022-11-01T16:48:16.851Z,7.50
2022-11-01T16:50:43.947Z,5.82
2022-11-01T16:53:11.528Z,5.85
2022-11-01T16:55:38.614Z,7.00
2022-11-01T16:58:05.976Z,5.82
2022-11-01T17:00:33.231Z,6.25
2022-11-01T17:03:01.964Z,7.03
2022-11-01T17:05:29.437Z,7.03
2022-11-01T17:07:56.844Z,7.93
2022-11-01T17:10:25.615Z,5.93
2022-11-01T17:12:53.898Z,7.10
2022-11-01T17:15:21.054Z,6.68
2022-11-01T17:17:48.227Z,5.28
2022-11-01T17:20:15.529Z,5.10
2022-11-01T17:22:42.598Z,7.65
2022-11-01T17:25:09.700Z,6.10
2022-11-01T17:27:36.777Z,8.52
2022-11-01T17:30:04.327Z,6.38
2022-11-01T17:32:31.430Z,9.15
2022-11-01T17:34:58.529Z,7.88
2022-11-01T17:37:25.832Z,9.63
2022-11-01T17:39:52.936Z,8.18
2022-11-01T17:42:20.041Z,6.82
2022-11-01T17:44:47.148Z,5.13
2022-11-01T17:47:14.388Z,6.15
2022-11-01T17:49:41.480Z,5.63
2022-11-01T17:52:08.638Z,6.60
2022-11-01T17:54:35.712Z,5.25
2022-11-01T17:57:02.919Z,6.25
2022-11-01T17:59:30.873Z,5.40
2022-11-01T18:01:58.278Z,4.80
2022-11-01T18:04:25.461Z,5.65
2022-11-01T18:06:52.606Z,6.22
2022-11-01T18:09:19.708Z,7.93
2022-11-01T18:11:46.788Z,5.63
2022-11-01T18:14:14.317Z,7.47
2022-11-01T18:16:41.401Z,4.95
2022-11-01T18:19:08.483Z,8.05
2022-11-01T18:21:35.563Z,5.20
2022-11-01T18:24:02.674Z,4.40
2022-11-01T18:26:31.045Z,8.43
2022-11-01T18:28:58.199Z,5.40
2022-11-01T18:31:25.264Z,6.10
2022-11-01T18:33:55.875Z,9.90
2022-11-01T18:36:22.957Z,7.32
2022-11-01T18:38:50.048Z,7.95
2022-11-01T18:41:17.129Z,5.13
2022-11-01T18:43:44.245Z,5.57
2022-11-01T18:46:24.473Z,7.03
2022-11-01T18:48:52.658Z,6.07
2022-11-01T18:51:19.736Z,6.15
2022-11-01T18:53:46.836Z,6.45
2022-11-01T18:56:14.186Z,4.88
2022-11-01T18:58:41.337Z,5.13
2022-11-01T19:01:09.721Z,7.22
2022-11-01T19:03:36.838Z,5.78
2022-11-01T19:06:04.671Z,7.55
2022-11-01T19:08:31.795Z,6.55
2022-11-01T19:10:58.916Z,7.18
2022-11-01T19:13:26.017Z,8.88
2022-11-01T19:15:54.465Z,8.70
2022-11-01T19:18:22.815Z,9.10
2022-11-01T19:20:50.049Z,9.45
2022-11-01T19:23:17.254Z,6.25
2022-11-01T19:25:44.340Z,9.57
2022-11-01T19:28:11.434Z,8.90
2022-11-01T19:30:38.847Z,8.50
2022-11-01T19:33:05.916Z,7.90
2022-11-01T19:35:33.041Z,6.65
2022-11-01T19:38:00.918Z,10.48
2022-11-01T19:40:28.366Z,8.40
2022-11-01T19:42:55.500Z,6.68
2022-11-01T19:45:24.951Z,8.48
2022-11-01T19:47:52.112Z,9.05
2022-11-01T19:50:19.548Z,11.25
2022-11-01T19:52:47.723Z,9.80
2022-11-01T19:55:14.945Z,9.63
2022-11-01T19:57:44.879Z,10.85
2022-11-01T20:00:12.294Z,12.73
2022-11-01T20:02:39.554Z,11.40
2022-11-01T20:05:07.034Z,8.10
2022-11-01T20:07:34.198Z,10.38
2022-11-01T20:10:01.328Z,7.50
2022-11-01T20:12:28.554Z,8.52
2022-11-01T20:14:55.786Z,6.97
2022-11-01T20:17:22.983Z,7.35
2022-11-01T20:19:50.229Z,6.22
2022-11-01T20:22:17.491Z,6.68
2022-11-01T20:24:44.840Z,8.63
2022-11-01T20:27:12.065Z,11.50
2022-11-01T20:29:39.568Z,6.70
2022-11-01T20:32:06.770Z,8.23
2022-11-01T20:34:34.110Z,6.07
2022-11-01T20:37:27.059Z,6.97
2022-11-01T20:39:49.403Z,6.72
2022-11-01T20:42:16.721Z,8.63
2022-11-01T20:44:43.886Z,6.28
2022-11-01T20:47:10.965Z,9.85
2022-11-01T20:49:38.093Z,7.28
2022-11-01T20:52:33.694Z,8.70
2022-11-01T20:54:53.069Z,10.60
2022-11-01T20:57:28.169Z,9.85
2022-11-01T21:02:22.997Z,7.20
2022-11-01T21:04:50.212Z,6.82
2022-11-01T21:07:17.305Z,10.55
2022-11-01T21:09:44.490Z,6.82
2022-11-01T21:12:11.566Z,10.10
2022-11-01T21:14:38.721Z,8.98
2022-11-01T21:17:05.802Z,7.43
2022-11-01T21:19:32.992Z,9.73
2022-11-01T21:22:00.075Z,7.43
2022-11-01T21:24:27.343Z,7.50
2022-11-01T21:26:56.132Z,9.75
2022-11-01T21:29:23.701Z,7.38
2022-11-01T21:31:50.833Z,8.90
2022-11-01T21:34:18.333Z,7.68
2022-11-01T21:36:45.416Z,8.00
2022-11-01T21:39:13.738Z,8.35
2022-11-01T21:41:41.743Z,5.90
2022-11-01T21:44:08.808Z,7.55
2022-11-01T21:46:35.968Z,8.18
2022-11-01T21:49:03.129Z,6.45
2022-11-01T21:51:32.503Z,8.35
2022-11-01T21:54:03.344Z,7.43
2022-11-01T21:56:31.752Z,6.38
2022-11-01T21:58:58.814Z,8.93
2022-11-01T22:01:25.946Z,10.43
2022-11-01T22:03:53.126Z,7.63
2022-11-01T22:06:20.206Z,7.93
2022-11-01T22:08:47.593Z,8.00
2022-11-01T22:11:14.668Z,8.05
2022-11-01T22:13:41.763Z,9.68
2022-11-01T22:16:09.505Z,6.88
2022-11-01T22:18:36.598Z,6.18
2022-11-01T22:21:03.670Z,8.52
2022-11-01T22:23:30.751Z,7.80
2022-11-01T22:25:57.824Z,5.85
2022-11-01T22:28:24.926Z,6.72
2022-11-01T22:30:51.992Z,7.22
2022-11-01T22:33:19.350Z,6.55
2022-11-01T22:35:46.437Z,6.75
2022-11-01T22:38:13.588Z,6.45
2022-11-01T22:40:40.665Z,7.47
2022-11-01T22:43:07.766Z,6.07
2022-11-01T22:45:34.843Z,5.82
2022-11-01T22:48:02.014Z,7.25
2022-11-01T22:50:29.176Z,6.60
2022-11-01T22:52:56.278Z,6.45
2022-11-01T22:55:23.397Z,7.07
2022-11-01T22:57:50.551Z,6.57
2022-11-01T23:03:05.881Z,7.43
2022-11-01T23:05:33.313Z,7.97
2022-11-01T23:08:00.382Z,5.97
2022-11-01T23:10:27.681Z,6.93
2022-11-01T23:13:13.689Z,8.40
2022-11-01T23:18:07.737Z,6.70
2022-11-01T23:20:34.810Z,7.65
2022-11-01T23:23:02.490Z,4.88
2022-11-01T23:25:30.305Z,8.82
2022-11-01T23:27:57.381Z,7.43
2022-11-01T23:30:24.529Z,6.63
2022-11-01T23:32:51.754Z,5.68
2022-11-01T23:35:18.925Z,6.70
2022-11-01T23:37:46.014Z,7.35
2022-11-01T23:40:13.130Z,6.60
2022-11-01T23:42:40.275Z,6.93
2022-11-01T23:45:07.352Z,7.85
2022-11-01T23:47:34.421Z,7.45
2022-11-01T23:50:01.497Z,6.15
2022-11-01T23:52:28.571Z,6.80
2022-11-01T23:54:55.671Z,5.72
2022-11-01T23:57:22.747Z,6.80
2022-11-01T23:59:49.918Z,5.50
